Terminal Aerodrome Forecast
Issued by NWS Jackson, KY

Home | Current Version | Previous Version | Text Only | Print | Product List | Glossary On
Versions: 1 2 3 4 5 6 7 8 9 10 11 12 13 14 15 16 17 18 19
000
FTUS43 KJKL 302300
TAFJKL
TAF
KJKL 302323Z 3100/3124 VRB03KT P6SM VCSH SCT050 BKN100
     FM310600 19003KT 6SM -SHRA BR VCTS BKN040CB OVC080
     FM310800 19003KT 4SM -SHRA BR VCTS SCT015 BKN025CB OVC040=

USA.gov is the U.S. government's official web portal to all federal, state and local government web resources and services.